createdAt,value
2022-07-25T00:01:50.665Z,22.8
2022-07-25T00:04:01.998Z,22.8
2022-07-25T00:05:57.379Z,22.7
2022-07-25T00:07:59.133Z,22.7
2022-07-25T00:12:02.699Z,22.6
2022-07-25T00:14:04.844Z,22.7
2022-07-25T00:20:13.038Z,22.5
2022-07-25T00:22:14.807Z,22.5
2022-07-25T00:23:17.306Z,22.5
2022-07-25T00:25:19.101Z,22.4
2022-07-25T00:27:20.872Z,22.5
2022-07-25T00:29:22.656Z,22.6
2022-07-25T00:31:27.832Z,22.4
2022-07-25T00:33:29.425Z,22.4
2022-07-25T00:35:31.197Z,22.3
2022-07-25T00:37:33.003Z,22.3
2022-07-25T00:39:35.735Z,22.2
2022-07-25T00:45:43.341Z,22.5
2022-07-25T00:47:45.160Z,22.3
2022-07-25T00:57:54.122Z,22.3
2022-07-25T00:59:59.111Z,22.2
2022-07-25T01:02:03.679Z,22.2
2022-07-25T01:04:03.015Z,22.2
2022-07-25T01:06:04.510Z,22.1
2022-07-25T01:08:06.297Z,22.2
2022-07-25T01:10:08.119Z,22.1
2022-07-25T01:12:09.916Z,22.1
2022-07-25T01:14:14.897Z,22
2022-07-25T01:16:16.792Z,21.9
2022-07-25T01:18:18.479Z,22.1
2022-07-25T01:20:40.893Z,21.8
2022-07-25T01:22:42.695Z,21.8
2022-07-25T01:24:44.499Z,21.7
2022-07-25T01:26:49.460Z,21.9
2022-07-25T01:28:51.268Z,21.8
2022-07-25T01:30:53.172Z,21.9
2022-07-25T01:32:54.879Z,21.7
2022-07-25T01:34:56.683Z,21.6
2022-07-25T01:36:58.480Z,21.8
2022-07-25T01:39:00.286Z,21.9
2022-07-25T01:41:05.292Z,21.8
2022-07-25T01:43:07.088Z,21.7
2022-07-25T01:45:08.891Z,21.8
2022-07-25T01:53:16.126Z,21.9
2022-07-25T01:55:21.104Z,21.8
2022-07-25T02:01:26.564Z,21.8
2022-07-25T02:03:28.376Z,21.6
2022-07-25T02:09:36.939Z,21.6
2022-07-25T02:14:43.064Z,21.6
2022-07-25T02:16:44.918Z,21.5
2022-07-25T02:18:46.695Z,21.5
2022-07-25T02:20:48.545Z,21.7
2022-07-25T02:22:53.476Z,21.6
2022-07-25T02:24:55.283Z,21.6
2022-07-25T02:26:57.110Z,21.5
2022-07-25T02:28:58.905Z,21.6
2022-07-25T02:31:00.788Z,21.5
2022-07-25T02:33:02.535Z,21.6
2022-07-25T02:35:04.371Z,21.6
2022-07-25T02:37:09.348Z,21.5
2022-07-25T02:39:11.149Z,21.5
2022-07-25T02:41:13.005Z,21.5
2022-07-25T02:43:14.788Z,21.4
2022-07-25T02:45:16.624Z,21.5
2022-07-25T02:47:18.408Z,21.3
2022-07-25T02:49:20.295Z,21.4
2022-07-25T02:51:25.229Z,21.2
2022-07-25T02:53:47.102Z,21.2
2022-07-25T02:55:28.882Z,21.2
2022-07-25T02:59:32.548Z,21.2
2022-07-25T03:03:36.230Z,21.2
2022-07-25T03:05:41.185Z,21.3
2022-07-25T03:09:44.788Z,21.2
2022-07-25T03:10:47.272Z,21.2
2022-07-25T03:12:49.108Z,21.1
2022-07-25T03:14:50.929Z,21.2
2022-07-25T03:16:52.776Z,21.1
2022-07-25T03:18:57.717Z,21.2
2022-07-25T03:20:59.564Z,21.1
2022-07-25T03:23:01.366Z,21
2022-07-25T03:25:03.201Z,21.1
2022-07-25T03:27:05.057Z,21.1
2022-07-25T03:29:06.865Z,21.2
2022-07-25T03:31:08.702Z,21.1
2022-07-25T03:33:13.739Z,21.1
2022-07-25T03:35:15.526Z,21.2
2022-07-25T03:37:17.373Z,21.3
2022-07-25T03:39:19.155Z,21.1
2022-07-25T03:41:21.005Z,21.3
2022-07-25T03:43:22.843Z,21.3
2022-07-25T03:47:29.657Z,21
2022-07-25T03:49:31.493Z,21.2
2022-07-25T03:51:34.847Z,21
2022-07-25T03:53:36.650Z,21
2022-07-25T03:55:38.477Z,21.2
2022-07-25T03:57:40.325Z,21
2022-07-25T03:59:42.131Z,21.1
2022-07-25T04:01:47.122Z,21.2
2022-07-25T04:03:48.956Z,21.3
2022-07-25T04:05:50.812Z,21.4
2022-07-25T04:06:53.294Z,21.2
2022-07-25T04:08:55.115Z,21.2
2022-07-25T04:10:56.939Z,21.3
2022-07-25T04:12:58.768Z,21.4
2022-07-25T04:15:03.771Z,21.5
2022-07-25T04:17:05.707Z,21.5
2022-07-25T04:19:07.425Z,21.4
2022-07-25T04:21:09.242Z,21.5
2022-07-25T04:23:11.085Z,21.5
2022-07-25T04:25:12.884Z,21.7
2022-07-25T04:27:14.714Z,21.4
2022-07-25T04:29:19.705Z,21.7
2022-07-25T04:31:21.568Z,21.6
2022-07-25T04:33:23.366Z,21.7
2022-07-25T04:35:25.200Z,21.7
2022-07-25T04:37:27.024Z,21.6
2022-07-25T04:39:28.843Z,22
2022-07-25T04:41:30.669Z,21.8
2022-07-25T04:47:39.281Z,22.2
2022-07-25T04:49:41.131Z,21.9
2022-07-25T04:51:42.935Z,22.3
2022-07-25T04:55:46.592Z,22.3
2022-07-25T04:59:53.404Z,22.7
2022-07-25T05:01:55.257Z,22.8
2022-07-25T05:04:23.618Z,23.1
2022-07-25T05:06:25.446Z,23.2
2022-07-25T05:08:27.250Z,23.2
2022-07-25T05:14:35.864Z,23.4
2022-07-25T05:28:51.690Z,23.7
2022-07-25T05:30:53.491Z,23.7
2022-07-25T05:32:55.290Z,23.8
2022-07-25T05:34:57.077Z,23.9
2022-07-25T05:36:58.902Z,24
2022-07-25T05:39:03.849Z,24
2022-07-25T05:41:05.638Z,24
2022-07-25T05:43:07.447Z,23.8
2022-07-25T05:45:09.241Z,23.8
2022-07-25T05:47:11.178Z,23.8
2022-07-25T05:49:12.934Z,23.8
2022-07-25T05:55:21.354Z,24
2022-07-25T05:57:23.122Z,24
2022-07-25T05:58:29.617Z,24.2
2022-07-25T06:00:27.368Z,24.2
2022-07-25T06:04:30.936Z,24.7
2022-07-25T06:06:35.894Z,24.2
2022-07-25T06:08:37.644Z,24.3
2022-07-25T06:10:39.442Z,24.6
2022-07-25T06:12:41.207Z,24.3
2022-07-25T06:14:43.027Z,24.5
2022-07-25T06:16:44.823Z,24.7
2022-07-25T06:18:46.521Z,24.6
2022-07-25T06:20:51.462Z,24.4
2022-07-25T06:24:55.013Z,24.4
2022-07-25T06:33:02.048Z,24.4
2022-07-25T06:35:06.979Z,24.4
2022-07-25T06:37:08.747Z,24.5
2022-07-25T06:45:15.780Z,24.4
2022-07-25T06:47:17.516Z,24.1
2022-07-25T06:53:25.989Z,24.3
2022-07-25T07:00:33.743Z,24.6
2022-07-25T07:02:38.675Z,24.4
2022-07-25T07:04:40.430Z,24.5
2022-07-25T07:06:42.183Z,24.4
2022-07-25T07:10:45.701Z,24.3
2022-07-25T07:12:47.447Z,24.5
2022-07-25T07:16:54.149Z,24.4
2022-07-25T07:18:55.911Z,24.4
2022-07-25T07:20:57.691Z,24.7
2022-07-25T07:22:59.477Z,24.6
2022-07-25T07:31:17.495Z,25
2022-07-25T07:37:14.926Z,25.3
2022-07-25T07:39:16.701Z,25.3
2022-07-25T07:41:18.453Z,25.2
2022-07-25T07:43:20.164Z,24.9
2022-07-25T07:45:25.095Z,25.1
2022-07-25T07:47:26.834Z,25.1
2022-07-25T07:49:28.631Z,25.3
2022-07-25T07:56:36.266Z,25.2
2022-07-25T07:58:41.198Z,25.4
2022-07-25T08:04:46.389Z,25.1
2022-07-25T08:06:48.143Z,25.2
2022-07-25T08:08:49.903Z,25.3
2022-07-25T08:10:55.625Z,25.2
2022-07-25T08:23:05.243Z,25
2022-07-25T08:25:06.972Z,25
2022-07-25T08:27:11.908Z,24.7
2022-07-25T08:31:15.436Z,24.6
2022-07-25T08:33:17.147Z,24.6
2022-07-25T08:39:22.344Z,24.6
2022-07-25T08:43:29.051Z,25
2022-07-25T08:47:59.160Z,25.2
2022-07-25T08:52:02.633Z,25.5
2022-07-25T08:54:08.181Z,25.4
2022-07-25T08:58:11.060Z,25.2
2022-07-25T09:04:16.275Z,24.9
2022-07-25T09:06:18.005Z,25.1
2022-07-25T09:08:22.932Z,25.2
2022-07-25T09:10:24.647Z,25.2
2022-07-25T09:12:26.386Z,25.5
2022-07-25T09:14:28.135Z,25.4
2022-07-25T09:16:29.934Z,25.5
2022-07-25T09:18:31.620Z,25.3
2022-07-25T09:20:33.347Z,25.1
2022-07-25T09:22:38.278Z,25.2
2022-07-25T09:24:39.990Z,25.1
2022-07-25T09:26:41.744Z,25
2022-07-25T09:28:43.483Z,24.7
2022-07-25T09:30:45.256Z,24.3
2022-07-25T09:32:46.982Z,24.2
2022-07-25T09:34:48.710Z,24.2
2022-07-25T09:38:55.384Z,24.2
2022-07-25T09:40:57.138Z,24.3
2022-07-25T09:42:01.128Z,24.6
2022-07-25T09:44:02.863Z,24.4
2022-07-25T09:48:06.310Z,24.6
2022-07-25T09:56:16.491Z,25.4
2022-07-25T09:58:18.218Z,25.7
2022-07-25T10:00:20.031Z,25.9
2022-07-25T10:04:26.626Z,26
2022-07-25T10:06:28.371Z,25.9
2022-07-25T10:10:31.826Z,25.8
2022-07-25T10:14:35.289Z,26
2022-07-25T10:16:37.085Z,26.4
2022-07-25T10:18:41.942Z,26.3
2022-07-25T10:20:43.651Z,26
2022-07-25T10:22:56.267Z,25.8
2022-07-25T10:24:47.126Z,26
2022-07-25T10:26:48.818Z,25.8
2022-07-25T10:28:50.556Z,25.4
2022-07-25T10:30:52.408Z,25.3
2022-07-25T10:32:57.184Z,25.1
2022-07-25T10:37:00.647Z,25.6
2022-07-25T10:40:04.809Z,25.7
2022-07-25T10:42:06.524Z,25.5
2022-07-25T10:44:08.595Z,25.4
2022-07-25T10:46:13.220Z,25.5
2022-07-25T10:48:14.890Z,25.6
2022-07-25T10:50:34.368Z,25.8
2022-07-25T10:52:18.323Z,25.8
2022-07-25T10:56:21.796Z,26
2022-07-25T10:58:23.485Z,25.9
2022-07-25T11:00:28.400Z,26
2022-07-25T11:04:31.841Z,26.1
2022-07-25T11:08:35.277Z,25.7
2022-07-25T11:10:37.010Z,25.8
2022-07-25T11:12:38.754Z,26
2022-07-25T11:16:45.471Z,25.5
2022-07-25T11:18:47.051Z,25.5
2022-07-25T11:20:48.768Z,25.3
2022-07-25T11:22:50.472Z,25.3
2022-07-25T11:24:52.200Z,25.4
2022-07-25T11:26:53.908Z,25.3
2022-07-25T11:28:58.864Z,25.4
2022-07-25T11:31:00.538Z,25.5
2022-07-25T11:33:02.276Z,25.9
2022-07-25T11:38:08.165Z,25.4
2022-07-25T11:40:09.901Z,25.3
2022-07-25T11:42:14.812Z,25.5
2022-07-25T11:44:16.516Z,25.4
2022-07-25T11:46:18.579Z,25.3
2022-07-25T11:54:25.123Z,24.8
2022-07-25T12:02:35.453Z,24.9
2022-07-25T12:04:36.942Z,24.8
2022-07-25T12:08:40.417Z,24.9
2022-07-25T12:10:45.306Z,25.1
2022-07-25T12:12:47.048Z,24.9
2022-07-25T12:14:48.769Z,25.1
2022-07-25T12:29:04.388Z,25.2
2022-07-25T12:31:32.461Z,25.5
2022-07-25T12:33:34.156Z,25.6
2022-07-25T12:35:35.886Z,25.4
2022-07-25T12:37:40.827Z,25.8
2022-07-25T12:39:42.515Z,25.8
2022-07-25T12:43:45.971Z,25.9
2022-07-25T12:45:47.734Z,25.1
2022-07-25T12:49:51.127Z,24.5
2022-07-25T12:51:58.159Z,23.8
2022-07-25T12:53:57.759Z,24
2022-07-25T12:55:59.596Z,23.7
2022-07-25T12:58:01.246Z,23.4
2022-07-25T13:02:04.883Z,23.4
2022-07-25T13:04:06.458Z,22.9
2022-07-25T13:06:11.395Z,23
2022-07-25T13:10:14.918Z,22.8
2022-07-25T13:12:16.803Z,23
2022-07-25T13:14:18.426Z,22.9
2022-07-25T13:16:20.279Z,22.9
2022-07-25T13:18:21.954Z,22.8
2022-07-25T13:20:26.916Z,22.7
2022-07-25T13:22:28.655Z,22.7
2022-07-25T13:24:30.465Z,22.7
2022-07-25T13:25:32.916Z,23
2022-07-25T13:27:34.676Z,23
2022-07-25T13:29:36.471Z,22.7
2022-07-25T13:31:38.357Z,23.1
2022-07-25T13:33:43.215Z,23.4
2022-07-25T13:35:44.977Z,23.2
2022-07-25T13:37:46.765Z,23.1
2022-07-25T13:39:48.549Z,24.1
2022-07-25T13:43:52.095Z,24.5
2022-07-25T13:45:53.942Z,24.4
2022-07-25T13:48:19.056Z,24.6
2022-07-25T13:52:02.377Z,24.7
2022-07-25T13:54:04.157Z,24.7
2022-07-25T13:56:05.939Z,24.4
2022-07-25T13:58:07.678Z,24.4
2022-07-25T14:00:09.440Z,24.7
2022-07-25T14:02:14.451Z,24.7
2022-07-25T14:04:16.140Z,24.7
2022-07-25T14:06:17.901Z,25
2022-07-25T14:10:21.423Z,25.2
2022-07-25T14:14:24.939Z,25.4
2022-07-25T14:16:30.029Z,25.3
2022-07-25T14:18:31.608Z,25.2
2022-07-25T14:20:33.380Z,25.4
2022-07-25T14:21:35.816Z,25
2022-07-25T14:23:37.550Z,25
2022-07-25T14:25:39.307Z,25
2022-07-25T14:29:45.985Z,25
2022-07-25T14:31:47.906Z,25.3
2022-07-25T14:35:51.214Z,25.7
2022-07-25T14:37:52.944Z,25.4
2022-07-25T14:41:56.399Z,26.1
2022-07-25T14:46:03.314Z,25.9
2022-07-25T14:48:04.769Z,25.6
2022-07-25T14:50:06.472Z,25.4
2022-07-25T14:52:08.217Z,25.6
2022-07-25T14:54:09.903Z,25.3
2022-07-25T14:56:11.631Z,25.2
2022-07-25T14:58:16.554Z,25.9
2022-07-25T15:00:18.245Z,25.6
2022-07-25T15:02:19.947Z,26.1
2022-07-25T15:04:21.717Z,26.4
2022-07-25T15:06:27.367Z,26.9
2022-07-25T15:08:25.045Z,25.5
2022-07-25T15:10:26.779Z,26.3
2022-07-25T15:12:31.667Z,26.2
2022-07-25T15:14:33.374Z,26.4
2022-07-25T15:16:35.245Z,25.7
2022-07-25T15:17:37.480Z,25.6
2022-07-25T15:26:01.591Z,25.3
2022-07-25T15:27:49.160Z,24.9
2022-07-25T15:29:50.850Z,24.7
2022-07-25T15:33:55.800Z,26.5
2022-07-25T15:35:57.472Z,27.1
2022-07-25T15:42:05.755Z,26.5
2022-07-25T15:44:07.457Z,25.1
2022-07-25T15:46:09.228Z,24.9
2022-07-25T15:52:14.288Z,25.5
2022-07-25T15:56:20.904Z,27.1
2022-07-25T15:58:22.595Z,25.2
2022-07-25T16:02:26.029Z,27.3
2022-07-25T16:10:36.050Z,26
2022-07-25T16:12:37.764Z,25.7
2022-07-25T16:15:06.070Z,25.2
2022-07-25T16:23:16.081Z,25.4
2022-07-25T16:25:17.752Z,25.2
2022-07-25T16:27:19.431Z,25.2
2022-07-25T16:29:21.117Z,25.2
2022-07-25T16:31:22.916Z,24.8
2022-07-25T16:35:29.400Z,24.8
2022-07-25T16:41:34.532Z,24.5
2022-07-25T16:43:36.222Z,24.4
2022-07-25T16:45:37.937Z,24.7
2022-07-25T16:47:39.643Z,24.3
2022-07-25T16:49:44.620Z,24.2
2022-07-25T16:51:46.301Z,24.3
2022-07-25T16:53:48.006Z,24.5
2022-07-25T16:55:49.757Z,24.6
2022-07-25T16:57:51.464Z,24.6
2022-07-25T16:59:53.299Z,24.6
2022-07-25T17:01:55.002Z,24.4
2022-07-25T17:03:59.855Z,24.1
2022-07-25T17:06:01.598Z,24
2022-07-25T17:08:03.335Z,23.9
2022-07-25T17:09:06.100Z,24
2022-07-25T17:11:07.754Z,23.8
2022-07-25T17:13:09.298Z,24
2022-07-25T17:15:11.055Z,23.8
2022-07-25T17:17:15.981Z,24
2022-07-25T17:19:17.725Z,24.2
2022-07-25T17:21:19.689Z,23.8
2022-07-25T17:23:21.250Z,24
2022-07-25T17:25:22.989Z,23.8
2022-07-25T17:27:24.787Z,24.1
2022-07-25T17:29:26.527Z,24
2022-07-25T17:31:31.542Z,23.9
2022-07-25T17:33:33.220Z,23.9
2022-07-25T17:35:34.978Z,23.8
2022-07-25T17:37:36.739Z,23.8
2022-07-25T17:39:38.511Z,23.7
2022-07-25T17:45:47.033Z,23.3
2022-07-25T17:47:48.754Z,23.4
2022-07-25T17:55:55.827Z,23.2
2022-07-25T18:00:02.672Z,23
2022-07-25T18:02:04.491Z,22.9
2022-07-25T18:04:06.397Z,22.9
2022-07-25T18:05:08.659Z,22.7
2022-07-25T18:07:10.474Z,22.7
2022-07-25T18:09:12.208Z,22.8
2022-07-25T18:13:18.962Z,22.6
2022-07-25T18:15:20.761Z,22.6
2022-07-25T18:17:22.572Z,22.5
2022-07-25T18:21:26.125Z,22.2
2022-07-25T18:23:27.935Z,22.5
2022-07-25T18:25:29.729Z,22.3
2022-07-25T18:29:36.502Z,22.1
2022-07-25T18:31:38.375Z,22
2022-07-25T18:33:40.122Z,22
2022-07-25T18:35:41.936Z,22.1
2022-07-25T18:37:43.711Z,22
2022-07-25T18:39:45.506Z,21.9
2022-07-25T18:41:50.503Z,21.9
2022-07-25T18:43:52.315Z,21.7
2022-07-25T18:45:54.193Z,21.8
2022-07-25T18:47:55.925Z,21.9
2022-07-25T18:49:57.707Z,21.7
2022-07-25T18:51:59.554Z,21.6
2022-07-25T18:54:01.362Z,21.7
2022-07-25T18:56:06.334Z,21.7
2022-07-25T18:58:08.137Z,21.4
2022-07-25T19:00:09.997Z,21.3
2022-07-25T19:05:16.156Z,21.2
2022-07-25T19:07:17.916Z,21.1
2022-07-25T19:09:22.916Z,21.2
2022-07-25T19:13:48.424Z,21.1
2022-07-25T19:15:28.436Z,21.2
2022-07-25T19:17:30.212Z,21.3
2022-07-25T19:19:32.003Z,21.1
2022-07-25T19:21:33.823Z,20.8
2022-07-25T19:23:38.816Z,21
2022-07-25T19:25:40.665Z,20.9
2022-07-25T19:27:42.494Z,21.1
2022-07-25T19:29:44.334Z,21.1
2022-07-25T19:31:46.143Z,20.8
2022-07-25T19:33:47.981Z,20.8
2022-07-25T19:35:49.835Z,20.9
2022-07-25T19:37:54.828Z,20.8
2022-07-25T19:39:56.667Z,20.9
2022-07-25T19:44:00.353Z,20.7
2022-07-25T19:46:02.269Z,20.9
2022-07-25T19:50:05.860Z,20.9
2022-07-25T19:58:43.349Z,20.9
2022-07-25T20:00:44.883Z,20.6
2022-07-25T20:02:46.774Z,20.6
2022-07-25T20:04:51.705Z,20.6
2022-07-25T20:06:53.514Z,20.6
2022-07-25T20:08:55.352Z,20.5
2022-07-25T20:10:57.184Z,20.6
2022-07-25T20:13:01.467Z,20.6
2022-07-25T20:19:08.090Z,20.5
2022-07-25T20:23:11.402Z,20.5
2022-07-25T20:27:15.044Z,20.5
2022-07-25T20:29:16.880Z,20.5
2022-07-25T20:31:18.933Z,20.3
2022-07-25T20:33:23.710Z,20.4
2022-07-25T20:35:25.538Z,20.4
2022-07-25T20:37:27.376Z,20.3
2022-07-25T20:39:29.201Z,20.3
2022-07-25T20:41:31.041Z,20.3
2022-07-25T20:43:32.887Z,20.2
2022-07-25T20:47:39.706Z,20.3
2022-07-25T20:49:41.534Z,20
2022-07-25T20:51:43.400Z,20.2
2022-07-25T20:54:47.714Z,19.8
2022-07-25T20:56:49.545Z,20.1
2022-07-25T20:58:51.392Z,20.1
2022-07-25T21:00:56.431Z,20.1
2022-07-25T21:02:58.210Z,19.8
2022-07-25T21:05:00.055Z,20.1
2022-07-25T21:07:01.907Z,20.1
2022-07-25T21:11:05.756Z,19.9
2022-07-25T21:15:12.422Z,19.7
2022-07-25T21:17:14.441Z,19.7
2022-07-25T21:21:17.939Z,19.8
2022-07-25T21:23:19.788Z,19.9
2022-07-25T21:25:23.173Z,19.8
2022-07-25T21:29:29.992Z,19.5
2022-07-25T21:31:31.879Z,19.5
2022-07-25T21:33:33.661Z,19.3
2022-07-25T21:35:50.475Z,19.5
2022-07-25T21:39:39.216Z,19.5
2022-07-25T21:41:41.056Z,19.4
2022-07-25T21:43:46.073Z,19.3
2022-07-25T21:45:47.971Z,19.4
2022-07-25T21:47:49.775Z,19.3
2022-07-25T21:54:57.863Z,19.3
2022-07-25T21:57:02.875Z,19.1
2022-07-25T22:01:06.795Z,18.9
2022-07-25T22:03:08.454Z,19
2022-07-25T22:05:10.301Z,19.1
2022-07-25T22:07:12.166Z,18.9
2022-07-25T22:11:39.029Z,18.8
2022-07-25T22:13:20.899Z,18.8
2022-07-25T22:21:28.374Z,18.7
2022-07-25T22:23:30.880Z,18.6
2022-07-25T22:27:37.753Z,18.3
2022-07-25T22:29:39.637Z,18.5
2022-07-25T22:31:41.547Z,18.5
2022-07-25T22:33:43.382Z,18.5
2022-07-25T22:35:45.260Z,18.6
2022-07-25T22:37:47.130Z,18.7
2022-07-25T22:39:52.146Z,18.5
2022-07-25T22:41:54.006Z,18.4
2022-07-25T22:43:58.863Z,18.5
2022-07-25T22:44:58.399Z,18.3
2022-07-25T22:47:00.277Z,18.5
2022-07-25T22:49:02.276Z,18.3
2022-07-25T22:53:09.048Z,18.4
2022-07-25T22:57:12.799Z,18.5
2022-07-25T22:59:14.701Z,18.4
2022-07-25T23:01:16.566Z,18.5
2022-07-25T23:03:18.494Z,18.6
2022-07-25T23:05:20.324Z,18.4
2022-07-25T23:11:29.088Z,18.6
2022-07-25T23:13:30.959Z,18.5
2022-07-25T23:15:50.181Z,18.7
2022-07-25T23:17:34.733Z,18.4
2022-07-25T23:19:36.583Z,18.4
2022-07-25T23:21:41.624Z,18.5
2022-07-25T23:23:43.504Z,18.4
2022-07-25T23:25:45.340Z,18.4
2022-07-25T23:27:47.388Z,18.5
2022-07-25T23:29:49.261Z,18.6
2022-07-25T23:31:51.228Z,18.4
2022-07-25T23:33:53.018Z,18.6
2022-07-25T23:35:58.055Z,18.3
2022-07-25T23:37:59.928Z,18.4
2022-07-25T23:40:01.792Z,18.5
2022-07-25T23:42:30.348Z,18.5
2022-07-25T23:44:32.231Z,18.5
2022-07-25T23:46:34.109Z,18.5
2022-07-25T23:48:39.375Z,18.5
2022-07-25T23:50:41.004Z,18.6
2022-07-25T23:52:42.861Z,18.5
2022-07-25T23:54:44.766Z,18.6
2022-07-25T23:58:48.513Z,18.4
